Главная страница
METAR-TAF:

METAR-TAF

Аэропорты :

Winchester Regional Airport

Винчестер, Виргиния, США

широта: 39-09N, долгота: 078-09W, высота над уровнем моря: 222 м

Текущие метеонаблюдения

Эта сводка был подготовлена 11 минут назад, в 11:55 UTC
Ветер 7 Узел от западный
Температура 0°C
Влажность 59%
Давление 1012 hPa
Видимость: 16.1 км
Рассеянная облачность на высоте 5000 фута
Рассеянная облачность на высоте 6500 фута
Сплошная облачность на высоте 8500 фута

METAR: KOKV 281155Z AUTO 26007KT 10SM BKN050 BKN065 OVC085 00/M07 A2989 RMK AO2

Время: 07:06 (12:06 UTC)


TAF: отсутствует

Метеонаблюдения и прогнозы для более 4000 аэропортов (сводки METAR и TAF).

Имеющиеся станции представлены на карте желтыми и красными точками.

Чтобы увидеть название станции, наведите на нее мышь.

Затем щелкните, чтобы увидеть метеонаблюдения и метеопрогнозы.

Управление картой: чтобы увеличить масштаб, щелкните зеленые кнопки с черным крестиком; чтобы уменьшить масштаб, щелкните зеленую кнопку с тире; для просмотра соседних карт щелкайте зеленые стрелки.


METAR-TAF: